aviador You're here:

KATL Decoded Metar

ATLANTA in GA, USA
Report Time2018-05-23 16:17:00
UTC Time2018-05-23 16:46:13
Flight Rules mvfr MVFR
Wind010° at 07 kt
W.Decomp.*RWY 08: 3.0 kt HW 6.3 kt LCW
RWY 09: 1.8 kt HW 6.8 kt LCW
RWY 10: 0.6 kt HW 7 kt LCW
W.Rank010° ranks 34
Current wind is below 010° avg. (7.1)
Visibility9999 m
Phenomena:N/A
Clouds:Broken TCU 015 Hf
Broken 025 Hf
Broken 070 Hf
Expected CloudBase > 2,000 ft AGL from Temp-Dew spread
Ceiling1,500 ft
Temp25°C (ISA +12)
Dew Point20°C (74% RH)
QNH1020 hPa
Density Alt2,428 ft
Elevation971 ft
Report Wrong Elevation
Raw Report
KATL 231617Z 01007KT 10SM BKN015TCU BKN025 BKN070 25/20 A3011 RMK
AO2 TCU NE-SE & SW-NW T02500200=

Extra information for KATL:More info

Metar Taf Metar & Taf Last 4 Metars F.Rules Stats Wind Profile Meteogram Temp Stats Airport Information Weather charts Add Link Nearby VenuesMetar ALERT Operation Metar Decoded Social comments

AIRNAV info for KATL